createdAt,value
2019-04-20T00:01:43.298Z,18.50
2019-04-20T00:03:47.339Z,18.40
2019-04-20T00:05:48.936Z,18.40
2019-04-20T00:07:52.254Z,18.40
2019-04-20T00:10:02.601Z,18.50
2019-04-20T00:12:03.814Z,18.40
2019-04-20T00:14:06.686Z,18.40
2019-04-20T00:16:02.076Z,18.40
2019-04-20T00:18:06.684Z,18.40
2019-04-20T00:20:15.564Z,18.40
2019-04-20T00:22:13.661Z,18.40
2019-04-20T00:24:22.897Z,18.40
2019-04-20T00:26:56.363Z,18.40
2019-04-20T00:28:45.682Z,18.30
2019-04-20T00:30:51.809Z,18.40
2019-04-20T00:32:47.857Z,18.30
2019-04-20T00:34:39.937Z,18.30
2019-04-20T00:36:39.300Z,18.30
2019-04-20T00:38:48.382Z,18.40
2019-04-20T00:40:45.409Z,18.30
2019-04-20T00:42:51.789Z,18.40
2019-04-20T00:44:56.339Z,18.30
2019-04-20T00:47:04.549Z,18.30
2019-04-20T00:49:06.974Z,18.30
2019-04-20T00:51:21.332Z,18.30
2019-04-20T00:53:13.335Z,18.30
2019-04-20T00:55:06.370Z,18.30
2019-04-20T00:57:18.257Z,18.30
2019-04-20T00:59:25.792Z,18.30
2019-04-20T01:01:33.565Z,18.30
2019-04-20T01:03:33.999Z,18.30
2019-04-20T01:05:53.034Z,18.30
2019-04-20T01:07:58.538Z,18.30
2019-04-20T01:10:02.717Z,18.20
2019-04-20T01:12:11.733Z,18.20
2019-04-20T01:14:12.448Z,18.20
2019-04-20T01:16:25.188Z,18.20
2019-04-20T01:18:15.255Z,18.20
2019-04-20T01:20:17.702Z,18.20
2019-04-20T01:22:24.122Z,18.20
2019-04-20T01:24:30.944Z,18.20
2019-04-20T01:26:27.733Z,18.20
2019-04-20T01:28:46.353Z,18.20
2019-04-20T01:30:37.545Z,18.20
2019-04-20T01:32:52.697Z,18.20
2019-04-20T01:34:47.434Z,18.20
2019-04-20T01:36:55.981Z,18.20
2019-04-20T01:38:56.246Z,18.20
2019-04-20T01:40:46.469Z,18.20
2019-04-20T01:42:49.014Z,18.20
2019-04-20T01:44:53.583Z,18.20
2019-04-20T01:46:58.787Z,18.20
2019-04-20T01:49:04.999Z,18.20
2019-04-20T01:51:07.183Z,18.20
2019-04-20T01:53:12.435Z,18.20
2019-04-20T01:55:34.642Z,18.20
2019-04-20T01:57:29.882Z,18.20
2019-04-20T01:59:52.011Z,18.20
2019-04-20T02:02:06.946Z,18.20
2019-04-20T02:04:06.804Z,18.10
2019-04-20T02:06:17.885Z,18.10
2019-04-20T02:08:20.722Z,18.10
2019-04-20T02:10:23.017Z,18.00
2019-04-20T02:12:26.110Z,18.10
2019-04-20T02:14:32.137Z,18.10
2019-04-20T02:16:35.457Z,18.10
2019-04-20T02:18:42.130Z,18.10
2019-04-20T02:20:54.571Z,18.10
2019-04-20T02:22:51.581Z,18.10
2019-04-20T02:24:40.502Z,18.10
2019-04-20T02:26:43.042Z,18.10
2019-04-20T02:29:13.500Z,18.10
2019-04-20T02:31:26.921Z,18.10
2019-04-20T02:33:37.882Z,18.10
2019-04-20T02:35:30.083Z,18.10
2019-04-20T02:39:51.458Z,18.10
2019-04-20T02:41:47.728Z,18.10
2019-04-20T02:44:04.429Z,18.10
2019-04-20T02:45:47.152Z,18.00
2019-04-20T02:47:57.001Z,18.00
2019-04-20T02:50:05.459Z,18.00
2019-04-20T02:54:14.074Z,18.00
2019-04-20T02:56:08.599Z,18.00
2019-04-20T02:58:02.209Z,18.00
2019-04-20T03:01:55.373Z,18.00
2019-04-20T03:03:48.429Z,18.00
2019-04-20T03:06:02.452Z,18.00
2019-04-20T03:08:02.769Z,17.90
2019-04-20T03:10:08.402Z,18.00
2019-04-20T03:12:18.299Z,18.00
2019-04-20T03:14:13.743Z,18.00
2019-04-20T03:16:16.338Z,18.00
2019-04-20T03:18:19.467Z,17.90
2019-04-20T03:20:23.301Z,17.90
2019-04-20T03:22:29.124Z,17.90
2019-04-20T03:24:31.069Z,17.90
2019-04-20T03:26:34.030Z,17.90
2019-04-20T03:28:38.630Z,17.90
2019-04-20T03:35:06.595Z,17.90
2019-04-20T03:36:59.201Z,17.90
2019-04-20T03:38:57.284Z,17.90
2019-04-20T03:40:55.353Z,17.90
2019-04-20T03:42:44.311Z,17.90
2019-04-20T03:44:52.915Z,17.90
2019-04-20T03:46:55.453Z,17.90
2019-04-20T03:49:05.706Z,17.90
2019-04-20T03:51:14.720Z,17.90
2019-04-20T03:53:19.128Z,17.90
2019-04-20T03:55:33.501Z,17.80
2019-04-20T03:57:43.778Z,17.80
2019-04-20T03:59:46.277Z,17.80
2019-04-20T04:02:03.254Z,17.80
2019-04-20T04:04:10.598Z,17.80
2019-04-20T04:06:03.105Z,17.80
2019-04-20T04:08:01.224Z,17.80
2019-04-20T04:10:10.674Z,17.80
2019-04-20T04:12:08.921Z,17.70
2019-04-20T04:14:00.777Z,17.70
2019-04-20T04:16:07.870Z,17.70
2019-04-20T04:18:13.862Z,17.70
2019-04-20T04:20:14.287Z,17.70
2019-04-20T04:22:21.379Z,17.70
2019-04-20T04:24:27.121Z,17.70
2019-04-20T04:26:34.344Z,17.70
2019-04-20T04:28:36.794Z,17.70
2019-04-20T04:30:36.516Z,17.70
2019-04-20T04:33:08.797Z,17.60
2019-04-20T04:34:44.721Z,17.60
2019-04-20T04:36:56.181Z,17.60
2019-04-20T04:38:55.143Z,17.60
2019-04-20T04:41:06.480Z,17.50
2019-04-20T04:43:00.021Z,17.50
2019-04-20T04:44:50.470Z,17.50
2019-04-20T04:46:53.496Z,17.50
2019-04-20T04:48:50.799Z,17.40
2019-04-20T04:50:57.390Z,17.40
2019-04-20T04:53:00.650Z,17.40
2019-04-20T04:55:09.572Z,17.30
2019-04-20T04:56:58.696Z,17.30
2019-04-20T04:59:00.459Z,17.20
2019-04-20T05:01:08.374Z,17.20
2019-04-20T05:03:23.164Z,17.10
2019-04-20T05:05:46.670Z,17.10
2019-04-20T05:07:44.919Z,17.00
2019-04-20T05:09:33.791Z,16.90
2019-04-20T05:11:36.626Z,16.90
2019-04-20T05:13:47.950Z,16.90
2019-04-20T05:15:53.918Z,16.80
2019-04-20T05:18:02.068Z,16.80
2019-04-20T05:20:02.662Z,16.80
2019-04-20T05:22:11.085Z,16.70
2019-04-20T05:24:20.763Z,16.70
2019-04-20T05:26:26.830Z,16.60
2019-04-20T05:28:33.373Z,16.60
2019-04-20T05:30:24.544Z,16.60
2019-04-20T05:32:35.784Z,16.60
2019-04-20T05:34:52.579Z,16.50
2019-04-20T05:36:53.105Z,16.50
2019-04-20T05:39:02.755Z,16.50
2019-04-20T05:40:59.809Z,16.50
2019-04-20T05:43:07.944Z,16.50
2019-04-20T05:45:11.567Z,16.50
2019-04-20T05:47:13.559Z,16.50
2019-04-20T05:49:21.899Z,16.50
2019-04-20T05:51:26.885Z,16.50
2019-04-20T05:53:27.685Z,16.50
2019-04-20T05:55:29.452Z,16.50
2019-04-20T05:57:30.903Z,16.50
2019-04-20T05:59:27.009Z,16.50
2019-04-20T06:01:31.831Z,16.50
2019-04-20T06:03:33.578Z,16.50
2019-04-20T06:05:48.833Z,16.50
2019-04-20T06:07:42.437Z,16.50
2019-04-20T06:09:52.441Z,16.50
2019-04-20T06:11:57.476Z,16.50
2019-04-20T06:13:54.794Z,16.50
2019-04-20T06:16:07.331Z,16.60
2019-04-20T06:18:24.142Z,16.60
2019-04-20T06:20:39.238Z,16.60
2019-04-20T06:22:58.506Z,16.60
2019-04-20T06:24:47.859Z,16.60
2019-04-20T06:26:56.549Z,16.60
2019-04-20T06:28:43.835Z,16.70
2019-04-20T06:30:45.198Z,16.70
2019-04-20T06:33:18.942Z,16.70
2019-04-20T06:35:09.227Z,16.80
2019-04-20T06:37:07.150Z,16.80
2019-04-20T06:39:18.697Z,16.90
2019-04-20T06:41:29.019Z,16.90
2019-04-20T06:43:19.230Z,17.00
2019-04-20T06:45:28.203Z,17.00
2019-04-20T06:47:24.643Z,17.00
2019-04-20T06:49:33.272Z,17.10
2019-04-20T06:51:34.839Z,17.10
2019-04-20T06:53:45.551Z,17.20
2019-04-20T06:55:45.207Z,17.20
2019-04-20T06:59:48.397Z,17.40
2019-04-20T07:01:56.791Z,17.30
2019-04-20T07:04:09.079Z,17.40
2019-04-20T07:06:06.458Z,17.50
2019-04-20T07:08:00.680Z,17.50
2019-04-20T07:10:10.546Z,17.50
2019-04-20T07:11:59.828Z,17.60
2019-04-20T07:13:51.939Z,17.60
2019-04-20T07:16:13.787Z,17.60
2019-04-20T07:18:17.249Z,17.70
2019-04-20T07:20:27.738Z,17.70
2019-04-20T07:22:33.711Z,17.80
2019-04-20T07:24:42.897Z,17.80
2019-04-20T07:26:44.677Z,17.80
2019-04-20T07:28:47.341Z,17.90
2019-04-20T07:30:45.199Z,17.90
2019-04-20T07:32:52.489Z,18.10
2019-04-20T07:34:51.267Z,18.00
2019-04-20T07:37:04.397Z,18.10
2019-04-20T07:38:55.288Z,18.10
2019-04-20T07:40:56.281Z,18.20
2019-04-20T07:43:01.611Z,18.20
2019-04-20T07:45:07.187Z,18.30
2019-04-20T07:47:13.964Z,18.30
2019-04-20T07:49:10.312Z,18.30
2019-04-20T07:51:04.824Z,18.40
2019-04-20T07:53:13.670Z,18.40
2019-04-20T07:55:33.617Z,18.40
2019-04-20T07:57:21.569Z,18.50
2019-04-20T07:59:17.819Z,18.50
2019-04-20T08:01:54.282Z,18.60
2019-04-20T08:03:51.074Z,18.60
2019-04-20T08:05:45.749Z,18.70
2019-04-20T08:07:44.853Z,18.70
2019-04-20T08:09:47.606Z,18.80
2019-04-20T08:12:14.117Z,18.80
2019-04-20T08:14:12.939Z,18.90
2019-04-20T08:16:32.887Z,18.90
2019-04-20T08:18:13.863Z,19.00
2019-04-20T08:20:17.334Z,18.90
2019-04-20T08:22:19.920Z,19.00
2019-04-20T08:24:16.988Z,19.10
2019-04-20T08:26:15.340Z,19.00
2019-04-20T08:28:16.439Z,19.10
2019-04-20T08:30:29.366Z,19.10
2019-04-20T08:32:32.468Z,19.20
2019-04-20T08:34:41.666Z,19.30
2019-04-20T08:36:40.270Z,19.30
2019-04-20T08:40:52.069Z,19.40
2019-04-20T08:42:56.037Z,19.40
2019-04-20T08:45:02.834Z,19.40
2019-04-20T08:47:03.848Z,19.50
2019-04-20T08:48:56.881Z,19.60
2019-04-20T08:50:57.184Z,19.60
2019-04-20T08:55:05.188Z,19.70
2019-04-20T08:56:54.772Z,19.70
2019-04-20T08:58:51.095Z,19.70
2019-04-20T09:00:59.847Z,19.80
2019-04-20T09:03:05.708Z,19.90
2019-04-20T09:05:04.913Z,19.90
2019-04-20T09:07:11.539Z,20.00
2019-04-20T09:09:34.863Z,20.00
2019-04-20T09:11:24.261Z,20.00
2019-04-20T09:13:21.277Z,20.00
2019-04-20T09:15:14.661Z,20.10
2019-04-20T09:17:39.844Z,20.20
2019-04-20T09:19:47.940Z,20.20
2019-04-20T09:21:46.182Z,20.20
2019-04-20T09:24:16.238Z,20.30
2019-04-20T09:26:16.101Z,20.30
2019-04-20T09:28:21.520Z,20.40
2019-04-20T09:30:27.109Z,20.40
2019-04-20T09:32:30.987Z,20.40
2019-04-20T09:34:33.749Z,20.40
2019-04-20T09:36:32.628Z,20.50
2019-04-20T09:38:36.633Z,20.50
2019-04-20T09:40:58.403Z,20.60
2019-04-20T09:42:28.857Z,20.70
2019-04-20T09:44:38.694Z,20.70
2019-04-20T09:46:41.316Z,20.80
2019-04-20T09:48:42.865Z,20.80
2019-04-20T09:50:59.406Z,20.90
2019-04-20T09:52:57.051Z,20.90
2019-04-20T09:55:03.178Z,21.00
2019-04-20T09:57:09.179Z,21.00
2019-04-20T09:59:12.332Z,21.10
2019-04-20T10:01:12.380Z,21.10
2019-04-20T10:02:58.235Z,21.10
2019-04-20T10:05:00.264Z,21.20
2019-04-20T10:07:11.143Z,21.20
2019-04-20T10:09:05.368Z,21.20
2019-04-20T10:11:09.752Z,21.30
2019-04-20T10:13:11.334Z,21.30
2019-04-20T10:15:19.519Z,21.30
2019-04-20T10:17:20.106Z,21.50
2019-04-20T10:19:26.540Z,21.40
2019-04-20T10:21:25.750Z,21.50
2019-04-20T10:23:27.326Z,21.50
2019-04-20T10:25:30.880Z,21.50
2019-04-20T10:27:32.759Z,21.50
2019-04-20T10:29:35.566Z,21.50
2019-04-20T10:31:42.633Z,21.50
2019-04-20T10:33:40.203Z,21.50
2019-04-20T10:35:43.575Z,21.60
2019-04-20T10:37:51.572Z,21.60
2019-04-20T10:39:54.296Z,21.70
2019-04-20T10:41:59.020Z,21.80
2019-04-20T10:43:58.759Z,21.80
2019-04-20T10:46:00.687Z,21.90
2019-04-20T10:48:05.366Z,22.00
2019-04-20T10:50:07.134Z,21.90
2019-04-20T10:52:09.711Z,22.00
2019-04-20T10:54:12.481Z,22.10
2019-04-20T10:56:15.844Z,22.10
2019-04-20T10:58:17.762Z,22.10
2019-04-20T11:00:21.580Z,22.10
2019-04-20T11:02:23.628Z,22.20
2019-04-20T11:04:26.345Z,22.20
2019-04-20T11:06:28.948Z,22.30
2019-04-20T11:08:30.780Z,22.30
2019-04-20T11:10:49.158Z,22.30
2019-04-20T11:12:36.256Z,22.40
2019-04-20T11:14:42.426Z,22.40
2019-04-20T11:16:42.444Z,22.40
2019-04-20T11:18:44.970Z,22.50
2019-04-20T11:20:46.544Z,22.50
2019-04-20T11:22:50.439Z,22.50
2019-04-20T11:24:52.386Z,22.60
2019-04-20T11:26:54.271Z,22.60
2019-04-20T11:28:58.000Z,22.70
2019-04-20T11:31:01.889Z,22.70
2019-04-20T11:33:06.341Z,22.70
2019-04-20T11:35:16.034Z,22.70
2019-04-20T11:37:11.087Z,22.80
2019-04-20T11:39:14.834Z,22.80
2019-04-20T11:41:23.577Z,22.80
2019-04-20T11:43:20.212Z,22.80
2019-04-20T11:45:22.739Z,22.80
2019-04-20T11:47:25.336Z,22.90
2019-04-20T11:49:27.899Z,22.90
2019-04-20T11:51:31.659Z,23.00
2019-04-20T11:53:34.208Z,23.00
2019-04-20T11:55:37.984Z,23.10
2019-04-20T11:57:40.963Z,23.10
2019-04-20T11:59:43.535Z,23.10
2019-04-20T12:01:56.503Z,23.20
2019-04-20T12:04:01.958Z,23.20
2019-04-20T12:05:57.915Z,23.30
2019-04-20T12:08:00.857Z,23.30
2019-04-20T12:10:08.156Z,23.40
2019-04-20T12:12:15.716Z,23.50
2019-04-20T12:14:07.593Z,23.50
2019-04-20T12:16:10.168Z,23.60
2019-04-20T12:18:13.760Z,23.60
2019-04-20T12:20:16.632Z,23.70
2019-04-20T12:22:18.039Z,23.80
2019-04-20T12:24:20.753Z,23.80
2019-04-20T12:26:24.866Z,23.90
2019-04-20T12:28:27.531Z,23.90
2019-04-20T12:30:29.960Z,24.00
2019-04-20T12:32:35.235Z,24.00
2019-04-20T12:34:35.011Z,24.10
2019-04-20T12:36:37.394Z,24.20
2019-04-20T12:38:41.199Z,24.20
2019-04-20T12:40:42.374Z,24.30
2019-04-20T12:42:44.919Z,24.30
2019-04-20T12:44:47.974Z,24.40
2019-04-20T12:46:50.201Z,24.40
2019-04-20T12:48:53.699Z,24.50
2019-04-20T12:50:57.504Z,24.60
2019-04-20T12:52:58.942Z,24.60
2019-04-20T12:55:03.453Z,24.70
2019-04-20T12:57:04.663Z,24.70
2019-04-20T12:59:07.473Z,24.80
2019-04-20T13:01:10.153Z,24.80
2019-04-20T13:03:13.625Z,24.90
2019-04-20T13:05:15.373Z,25.00
2019-04-20T13:07:17.714Z,25.00
2019-04-20T13:09:20.959Z,25.10
2019-04-20T13:11:49.437Z,25.20
2019-04-20T13:13:44.217Z,25.30
2019-04-20T13:16:01.039Z,25.30
2019-04-20T13:18:03.560Z,25.40
2019-04-20T13:20:06.325Z,25.40
2019-04-20T13:22:08.966Z,25.50
2019-04-20T13:24:12.227Z,25.60
2019-04-20T13:26:15.667Z,25.70
2019-04-20T13:28:17.201Z,25.80
2019-04-20T13:30:19.775Z,25.80
2019-04-20T13:32:23.510Z,25.90
2019-04-20T13:34:26.157Z,26.00
2019-04-20T13:36:28.473Z,26.10
2019-04-20T13:38:30.490Z,26.20
2019-04-20T13:40:33.408Z,26.30
2019-04-20T13:42:36.495Z,26.30
2019-04-20T13:44:39.027Z,26.40
2019-04-20T13:46:40.988Z,26.50
2019-04-20T13:48:44.752Z,26.50
2019-04-20T13:50:46.442Z,26.60
2019-04-20T13:52:49.123Z,26.70
2019-04-20T13:54:51.854Z,26.80
2019-04-20T13:56:55.403Z,26.80
2019-04-20T13:58:58.146Z,26.90
2019-04-20T14:01:14.667Z,27.00
2019-04-20T14:03:16.704Z,27.00
2019-04-20T14:05:35.068Z,27.10
2019-04-20T14:07:37.574Z,27.10
2019-04-20T14:09:39.554Z,27.20
2019-04-20T14:11:43.329Z,27.30
2019-04-20T14:13:52.928Z,27.30
2019-04-20T14:15:47.205Z,27.40
2019-04-20T14:17:51.074Z,27.50
2019-04-20T14:19:53.135Z,27.60
2019-04-20T14:21:56.455Z,27.70
2019-04-20T14:23:59.140Z,27.80
2019-04-20T14:26:00.932Z,27.90
2019-04-20T14:28:03.142Z,28.00
2019-04-20T14:30:06.732Z,28.10
2019-04-20T14:32:10.228Z,28.20
2019-04-20T14:34:11.023Z,28.20
2019-04-20T14:36:14.805Z,28.30
2019-04-20T14:38:16.040Z,28.40
2019-04-20T14:40:18.744Z,28.50
2019-04-20T14:42:30.177Z,28.60
2019-04-20T14:44:25.651Z,28.60
2019-04-20T14:46:27.954Z,28.70
2019-04-20T14:48:31.038Z,28.80
2019-04-20T14:50:33.840Z,28.80
2019-04-20T14:52:35.535Z,28.80
2019-04-20T14:54:39.367Z,28.80
2019-04-20T14:56:41.337Z,28.80
2019-04-20T14:58:43.963Z,28.80
2019-04-20T15:00:49.910Z,28.70
2019-04-20T15:02:50.016Z,28.70
2019-04-20T15:04:52.763Z,28.70
2019-04-20T15:06:54.848Z,28.60
2019-04-20T15:08:57.100Z,28.60
2019-04-20T15:11:00.914Z,28.60
2019-04-20T15:13:04.351Z,28.50
2019-04-20T15:15:05.539Z,28.50
2019-04-20T15:17:08.899Z,28.40
2019-04-20T15:19:27.444Z,28.40
2019-04-20T15:21:29.450Z,28.30
2019-04-20T15:23:33.134Z,28.30
2019-04-20T15:25:36.665Z,28.10
2019-04-20T15:27:41.039Z,28.10
2019-04-20T15:29:40.527Z,28.10
2019-04-20T15:31:44.034Z,28.10
2019-04-20T15:33:46.075Z,28.00
2019-04-20T15:35:48.660Z,28.00
2019-04-20T15:37:51.209Z,28.00
2019-04-20T15:39:54.920Z,27.90
2019-04-20T15:41:57.169Z,27.90
2019-04-20T15:43:59.763Z,27.90
2019-04-20T15:46:03.377Z,27.80
2019-04-20T15:48:06.197Z,27.80
2019-04-20T15:50:09.679Z,27.80
2019-04-20T15:52:12.337Z,27.80
2019-04-20T15:54:15.686Z,27.80
2019-04-20T15:56:18.524Z,27.80
2019-04-20T15:58:20.664Z,27.80
2019-04-20T16:00:24.481Z,27.70
2019-04-20T16:02:45.331Z,27.70
2019-04-20T16:04:48.711Z,27.70
2019-04-20T16:06:50.929Z,27.60
2019-04-20T16:08:54.472Z,27.60
2019-04-20T16:10:57.219Z,27.60
2019-04-20T16:13:09.339Z,27.50
2019-04-20T16:15:01.984Z,27.50
2019-04-20T16:17:06.769Z,27.50
2019-04-20T16:19:12.755Z,27.50
2019-04-20T16:21:14.218Z,27.50
2019-04-20T16:23:12.435Z,27.60
2019-04-20T16:25:14.124Z,27.50
2019-04-20T16:27:36.123Z,27.50
2019-04-20T16:29:39.724Z,27.50
2019-04-20T16:31:43.437Z,27.50
2019-04-20T16:33:44.322Z,27.40
2019-04-20T16:35:46.894Z,27.40
2019-04-20T16:37:50.500Z,27.40
2019-04-20T16:39:52.495Z,27.40
2019-04-20T16:41:56.078Z,27.40
2019-04-20T16:43:57.554Z,27.40
2019-04-20T16:46:01.262Z,27.40
2019-04-20T16:48:03.836Z,27.40
2019-04-20T16:50:06.799Z,27.30
2019-04-20T16:52:09.051Z,27.30
2019-04-20T16:54:11.994Z,27.30
2019-04-20T16:56:17.084Z,27.30
2019-04-20T16:58:19.746Z,27.30
2019-04-20T17:00:21.137Z,27.30
2019-04-20T17:02:24.623Z,27.30
2019-04-20T17:04:30.235Z,27.30
2019-04-20T17:06:32.019Z,27.30
2019-04-20T17:08:34.417Z,27.20
2019-04-20T17:10:36.985Z,27.20
2019-04-20T17:12:39.928Z,27.20
2019-04-20T17:14:43.356Z,27.20
2019-04-20T17:16:45.761Z,27.20
2019-04-20T17:18:47.935Z,27.20
2019-04-20T17:20:52.157Z,27.10
2019-04-20T17:22:56.200Z,27.10
2019-04-20T17:24:58.428Z,27.00
2019-04-20T17:27:06.923Z,27.00
2019-04-20T17:29:10.677Z,27.00
2019-04-20T17:31:13.549Z,27.00
2019-04-20T17:33:24.449Z,27.00
2019-04-20T17:35:36.620Z,26.90
2019-04-20T17:37:29.850Z,26.90
2019-04-20T17:39:40.944Z,26.90
2019-04-20T17:41:49.960Z,26.80
2019-04-20T17:43:57.815Z,26.80
2019-04-20T17:45:49.695Z,26.80
2019-04-20T17:47:58.155Z,26.70
2019-04-20T17:50:05.278Z,26.70
2019-04-20T17:52:12.704Z,26.70
2019-04-20T17:54:01.638Z,26.60
2019-04-20T17:56:02.357Z,26.60
2019-04-20T17:58:05.632Z,26.60
2019-04-20T18:00:13.770Z,26.60
2019-04-20T18:02:32.421Z,26.50
2019-04-20T18:04:51.966Z,26.50
2019-04-20T18:06:39.419Z,26.40
2019-04-20T18:08:45.403Z,26.40
2019-04-20T18:10:44.096Z,26.30
2019-04-20T18:12:40.920Z,26.30
2019-04-20T18:14:50.100Z,26.20
2019-04-20T18:17:01.102Z,26.20
2019-04-20T18:18:56.208Z,26.10
2019-04-20T18:20:46.900Z,26.00
2019-04-20T18:22:55.221Z,26.00
2019-04-20T18:25:14.736Z,25.90
2019-04-20T18:27:14.188Z,25.80
2019-04-20T18:29:15.141Z,25.70
2019-04-20T18:31:03.808Z,25.70
2019-04-20T18:33:05.405Z,25.60
2019-04-20T18:35:10.433Z,25.50
2019-04-20T18:37:16.805Z,25.40
2019-04-20T18:39:17.181Z,25.40
2019-04-20T18:41:28.842Z,25.20
2019-04-20T18:43:23.897Z,25.20
2019-04-20T18:45:41.034Z,25.10
2019-04-20T18:47:45.245Z,25.00
2019-04-20T18:49:41.044Z,25.00
2019-04-20T18:51:33.420Z,24.90
2019-04-20T18:53:41.121Z,24.80
2019-04-20T18:55:44.515Z,24.70
2019-04-20T18:57:41.482Z,24.60
2019-04-20T18:59:47.856Z,24.50
2019-04-20T19:01:46.750Z,24.50
2019-04-20T19:03:49.020Z,24.40
2019-04-20T19:05:51.401Z,24.30
2019-04-20T19:07:59.983Z,24.30
2019-04-20T19:10:02.649Z,24.10
2019-04-20T19:12:02.495Z,24.10
2019-04-20T19:14:24.945Z,24.00
2019-04-20T19:16:46.748Z,23.70
2019-04-20T19:18:49.492Z,23.80
2019-04-20T19:20:37.178Z,23.60
2019-04-20T19:22:40.109Z,23.60
2019-04-20T19:24:43.633Z,23.50
2019-04-20T19:26:50.762Z,23.40
2019-04-20T19:28:53.885Z,23.20
2019-04-20T19:31:05.790Z,23.20
2019-04-20T19:33:13.562Z,23.00
2019-04-20T19:35:04.642Z,23.00
2019-04-20T19:37:11.850Z,22.90
2019-04-20T19:39:19.356Z,22.80
2019-04-20T19:41:20.386Z,22.70
2019-04-20T19:43:18.162Z,22.70
2019-04-20T19:45:36.222Z,22.60
2019-04-20T19:47:34.434Z,22.50
2019-04-20T19:49:25.302Z,22.40
2019-04-20T19:51:43.494Z,22.40
2019-04-20T19:53:44.598Z,22.30
2019-04-20T19:55:40.442Z,22.30
2019-04-20T19:57:45.304Z,22.30
2019-04-20T19:59:37.995Z,22.20
2019-04-20T20:01:31.682Z,22.20
2019-04-20T20:03:35.454Z,22.10
2019-04-20T20:05:42.334Z,22.10
2019-04-20T20:07:44.206Z,22.10
2019-04-20T20:09:49.747Z,22.00
2019-04-20T20:11:46.769Z,22.00
2019-04-20T20:13:52.184Z,21.90
2019-04-20T20:15:57.486Z,21.90
2019-04-20T20:18:12.773Z,21.80
2019-04-20T20:20:21.505Z,21.80
2019-04-20T20:22:12.757Z,21.80
2019-04-20T20:24:04.206Z,21.70
2019-04-20T20:26:09.085Z,21.70
2019-04-20T20:28:21.518Z,21.60
2019-04-20T20:30:23.379Z,21.60
2019-04-20T20:32:25.583Z,21.60
2019-04-20T20:34:26.465Z,21.50
2019-04-20T20:36:30.778Z,21.40
2019-04-20T20:38:34.003Z,21.40
2019-04-20T20:40:34.648Z,21.40
2019-04-20T20:42:48.696Z,21.30
2019-04-20T20:44:41.162Z,21.30
2019-04-20T20:46:51.568Z,21.30
2019-04-20T20:49:04.729Z,21.20
2019-04-20T20:51:05.100Z,21.20
2019-04-20T20:53:02.459Z,21.10
2019-04-20T20:54:58.850Z,21.20
2019-04-20T20:57:01.399Z,21.10
2019-04-20T20:59:04.103Z,21.10
2019-04-20T21:01:09.408Z,21.00
2019-04-20T21:03:07.452Z,21.00
2019-04-20T21:05:05.943Z,20.90
2019-04-20T21:07:08.849Z,20.90
2019-04-20T21:09:10.687Z,20.90
2019-04-20T21:11:20.381Z,20.80
2019-04-20T21:13:17.273Z,20.80
2019-04-20T21:15:22.560Z,20.80
2019-04-20T21:17:25.202Z,20.70
2019-04-20T21:19:45.252Z,20.70
2019-04-20T21:21:38.782Z,20.70
2019-04-20T21:23:44.732Z,20.70
2019-04-20T21:25:40.812Z,20.60
2019-04-20T21:27:39.696Z,20.60
2019-04-20T21:29:47.519Z,20.60
2019-04-20T21:31:55.582Z,20.60
2019-04-20T21:33:50.972Z,20.50
2019-04-20T21:35:53.512Z,20.50
2019-04-20T21:38:01.670Z,20.50
2019-04-20T21:40:01.443Z,20.50
2019-04-20T21:42:08.250Z,20.40
2019-04-20T21:44:06.799Z,20.40
2019-04-20T21:46:10.302Z,20.40
2019-04-20T21:48:31.789Z,20.40
2019-04-20T21:50:29.759Z,20.40
2019-04-20T21:52:25.907Z,20.30
2019-04-20T21:54:20.215Z,20.30
2019-04-20T21:56:23.845Z,20.30
2019-04-20T21:58:32.241Z,20.30
2019-04-20T22:00:39.071Z,20.20
2019-04-20T22:02:41.285Z,20.20
2019-04-20T22:04:35.675Z,20.20
2019-04-20T22:06:40.348Z,20.20
2019-04-20T22:08:45.979Z,20.20
2019-04-20T22:10:46.977Z,20.10
2019-04-20T22:12:54.071Z,20.10
2019-04-20T22:14:58.963Z,20.10
2019-04-20T22:16:56.540Z,20.10
2019-04-20T22:19:14.619Z,20.10
2019-04-20T22:21:11.130Z,20.00
2019-04-20T22:23:13.989Z,20.10
2019-04-20T22:25:23.074Z,20.00
2019-04-20T22:27:15.856Z,20.00
2019-04-20T22:29:10.171Z,20.00
2019-04-20T22:31:13.901Z,20.00
2019-04-20T22:33:16.603Z,20.00
2019-04-20T22:35:19.159Z,20.00
2019-04-20T22:37:26.249Z,19.90
2019-04-20T22:39:31.220Z,19.90
2019-04-20T22:41:27.683Z,19.90
2019-04-20T22:43:33.723Z,19.90
2019-04-20T22:45:34.031Z,19.90
2019-04-20T22:47:35.664Z,19.90
2019-04-20T22:49:55.092Z,19.80
2019-04-20T22:51:53.103Z,19.80
2019-04-20T22:53:53.860Z,19.90
2019-04-20T22:56:06.159Z,19.80
2019-04-20T22:57:59.086Z,19.80
2019-04-20T22:59:59.407Z,19.80
2019-04-20T23:01:58.855Z,19.80
2019-04-20T23:03:57.207Z,19.70
2019-04-20T23:06:00.651Z,19.80
2019-04-20T23:08:04.492Z,19.70
2019-04-20T23:10:08.236Z,19.70
2019-04-20T23:12:12.241Z,19.70
2019-04-20T23:14:11.615Z,19.70
2019-04-20T23:16:15.371Z,19.70
2019-04-20T23:18:18.106Z,19.70
2019-04-20T23:20:25.194Z,19.70
2019-04-20T23:22:23.080Z,19.60
2019-04-20T23:24:24.648Z,19.60
2019-04-20T23:26:33.536Z,19.60
2019-04-20T23:28:31.290Z,19.60
2019-04-20T23:30:37.344Z,19.60
2019-04-20T23:32:35.886Z,19.60
2019-04-20T23:34:39.160Z,19.60
2019-04-20T23:36:45.056Z,19.60
2019-04-20T23:38:48.033Z,19.50
2019-04-20T23:40:45.869Z,19.50
2019-04-20T23:42:51.596Z,19.50
2019-04-20T23:45:09.382Z,19.50
2019-04-20T23:47:16.519Z,19.50
2019-04-20T23:49:25.043Z,19.40
2019-04-20T23:51:44.332Z,19.40
2019-04-20T23:53:39.285Z,19.50
2019-04-20T23:55:26.031Z,19.40
2019-04-20T23:57:29.399Z,19.40
2019-04-20T23:59:37.562Z,19.40
